sensor_id;sensor_type;location;lat;lon;timestamp;P1;durP1;ratioP1;P2;durP2;ratioP2
17310;SDS011;8773;43.300;0.394;2022-12-07T00:01:27;22.20;;;19.93;;
17310;SDS011;8773;43.300;0.394;2022-12-07T00:03:57;24.07;;;21.77;;
17310;SDS011;8773;43.300;0.394;2022-12-07T00:06:31;22.97;;;20.57;;
17310;SDS011;8773;43.300;0.394;2022-12-07T00:09:00;21.27;;;19.17;;
17310;SDS011;8773;43.300;0.394;2022-12-07T00:11:29;21.03;;;18.93;;
17310;SDS011;8773;43.300;0.394;2022-12-07T00:13:58;20.43;;;18.33;;
17310;SDS011;8773;43.300;0.394;2022-12-07T00:16:29;19.47;;;17.57;;
17310;SDS011;8773;43.300;0.394;2022-12-07T00:18:59;19.27;;;17.37;;
17310;SDS011;8773;43.300;0.394;2022-12-07T00:21:28;19.50;;;17.57;;
17310;SDS011;8773;43.300;0.394;2022-12-07T00:23:57;20.67;;;18.57;;
17310;SDS011;8773;43.300;0.394;2022-12-07T00:26:27;21.07;;;18.97;;
17310;SDS011;8773;43.300;0.394;2022-12-07T00:28:59;19.40;;;17.60;;
17310;SDS011;8773;43.300;0.394;2022-12-07T00:31:28;21.20;;;18.90;;
17310;SDS011;8773;43.300;0.394;2022-12-07T00:34:00;21.00;;;18.97;;
17310;SDS011;8773;43.300;0.394;2022-12-07T00:36:28;19.57;;;17.77;;
17310;SDS011;8773;43.300;0.394;2022-12-07T00:38:57;20.13;;;18.13;;
17310;SDS011;8773;43.300;0.394;2022-12-07T00:41:27;17.87;;;16.17;;
17310;SDS011;8773;43.300;0.394;2022-12-07T00:43:56;17.97;;;16.13;;
17310;SDS011;8773;43.300;0.394;2022-12-07T00:46:26;18.60;;;16.77;;
17310;SDS011;8773;43.300;0.394;2022-12-07T00:48:54;19.13;;;17.33;;
17310;SDS011;8773;43.300;0.394;2022-12-07T00:51:23;17.60;;;15.93;;
17310;SDS011;8773;43.300;0.394;2022-12-07T00:53:52;18.03;;;16.30;;
17310;SDS011;8773;43.300;0.394;2022-12-07T00:56:22;16.33;;;14.77;;
17310;SDS011;8773;43.300;0.394;2022-12-07T00:58:52;15.63;;;14.20;;
17310;SDS011;8773;43.300;0.394;2022-12-07T01:01:22;15.33;;;13.77;;
17310;SDS011;8773;43.300;0.394;2022-12-07T01:03:51;14.03;;;12.70;;
17310;SDS011;8773;43.300;0.394;2022-12-07T01:06:20;13.57;;;12.37;;
17310;SDS011;8773;43.300;0.394;2022-12-07T01:08:50;12.93;;;11.80;;
17310;SDS011;8773;43.300;0.394;2022-12-07T01:11:19;13.63;;;12.27;;
17310;SDS011;8773;43.300;0.394;2022-12-07T01:13:49;13.67;;;12.37;;
17310;SDS011;8773;43.300;0.394;2022-12-07T01:16:18;14.13;;;12.77;;
17310;SDS011;8773;43.300;0.394;2022-12-07T01:18:48;13.90;;;12.70;;
17310;SDS011;8773;43.300;0.394;2022-12-07T01:21:19;16.03;;;14.53;;
17310;SDS011;8773;43.300;0.394;2022-12-07T01:23:49;17.33;;;15.47;;
17310;SDS011;8773;43.300;0.394;2022-12-07T01:26:18;17.53;;;15.73;;
17310;SDS011;8773;43.300;0.394;2022-12-07T01:28:47;17.83;;;16.03;;
17310;SDS011;8773;43.300;0.394;2022-12-07T01:31:16;17.93;;;16.03;;
17310;SDS011;8773;43.300;0.394;2022-12-07T01:33:46;17.70;;;16.00;;
17310;SDS011;8773;43.300;0.394;2022-12-07T01:36:16;17.47;;;15.57;;
17310;SDS011;8773;43.300;0.394;2022-12-07T01:38:48;17.87;;;15.70;;
17310;SDS011;8773;43.300;0.394;2022-12-07T01:41:19;17.50;;;15.60;;
17310;SDS011;8773;43.300;0.394;2022-12-07T01:44:08;17.37;;;15.77;;
17310;SDS011;8773;43.300;0.394;2022-12-07T01:46:45;17.07;;;15.40;;
17310;SDS011;8773;43.300;0.394;2022-12-07T01:52:10;17.77;;;16.13;;
17310;SDS011;8773;43.300;0.394;2022-12-07T01:54:43;18.30;;;16.60;;
17310;SDS011;8773;43.300;0.394;2022-12-07T01:57:13;17.67;;;15.83;;
17310;SDS011;8773;43.300;0.394;2022-12-07T01:59:43;18.00;;;16.20;;
17310;SDS011;8773;43.300;0.394;2022-12-07T02:02:16;17.17;;;15.37;;
17310;SDS011;8773;43.300;0.394;2022-12-07T02:04:47;16.73;;;15.03;;
17310;SDS011;8773;43.300;0.394;2022-12-07T02:07:20;15.57;;;14.17;;
17310;SDS011;8773;43.300;0.394;2022-12-07T02:09:48;16.27;;;14.77;;
17310;SDS011;8773;43.300;0.394;2022-12-07T02:12:16;16.10;;;14.63;;
17310;SDS011;8773;43.300;0.394;2022-12-07T02:14:45;16.03;;;14.50;;
17310;SDS011;8773;43.300;0.394;2022-12-07T02:17:14;16.63;;;14.93;;
17310;SDS011;8773;43.300;0.394;2022-12-07T02:23:04;16.20;;;14.70;;
17310;SDS011;8773;43.300;0.394;2022-12-07T02:26:12;16.43;;;14.83;;
17310;SDS011;8773;43.300;0.394;2022-12-07T02:28:58;16.93;;;14.70;;
17310;SDS011;8773;43.300;0.394;2022-12-07T02:31:38;17.83;;;16.03;;
17310;SDS011;8773;43.300;0.394;2022-12-07T02:34:14;17.93;;;16.20;;
17310;SDS011;8773;43.300;0.394;2022-12-07T02:36:52;17.30;;;15.70;;
17310;SDS011;8773;43.300;0.394;2022-12-07T02:39:25;17.37;;;15.67;;
17310;SDS011;8773;43.300;0.394;2022-12-07T02:42:00;16.97;;;15.47;;
17310;SDS011;8773;43.300;0.394;2022-12-07T02:44:36;16.53;;;14.90;;
17310;SDS011;8773;43.300;0.394;2022-12-07T02:47:05;15.90;;;14.33;;
17310;SDS011;8773;43.300;0.394;2022-12-07T02:49:37;15.60;;;14.00;;
17310;SDS011;8773;43.300;0.394;2022-12-07T02:52:06;16.83;;;15.17;;
17310;SDS011;8773;43.300;0.394;2022-12-07T02:54:34;17.17;;;15.57;;
17310;SDS011;8773;43.300;0.394;2022-12-07T02:57:05;15.13;;;13.70;;
17310;SDS011;8773;43.300;0.394;2022-12-07T02:59:47;15.43;;;13.93;;
17310;SDS011;8773;43.300;0.394;2022-12-07T03:02:30;14.50;;;13.10;;
17310;SDS011;8773;43.300;0.394;2022-12-07T03:05:07;15.50;;;14.00;;
17310;SDS011;8773;43.300;0.394;2022-12-07T03:07:50;16.07;;;14.67;;
17310;SDS011;8773;43.300;0.394;2022-12-07T03:10:31;15.90;;;14.50;;
17310;SDS011;8773;43.300;0.394;2022-12-07T03:13:07;16.70;;;15.10;;
17310;SDS011;8773;43.300;0.394;2022-12-07T03:15:41;15.77;;;14.27;;
17310;SDS011;8773;43.300;0.394;2022-12-07T03:18:16;15.20;;;13.80;;
17310;SDS011;8773;43.300;0.394;2022-12-07T03:20:48;15.80;;;14.30;;
17310;SDS011;8773;43.300;0.394;2022-12-07T03:23:20;15.03;;;13.53;;
17310;SDS011;8773;43.300;0.394;2022-12-07T03:25:55;16.10;;;13.63;;
17310;SDS011;8773;43.300;0.394;2022-12-07T03:28:28;18.13;;;15.57;;
17310;SDS011;8773;43.300;0.394;2022-12-07T03:31:02;16.03;;;14.47;;
17310;SDS011;8773;43.300;0.394;2022-12-07T03:33:39;15.50;;;13.73;;
17310;SDS011;8773;43.300;0.394;2022-12-07T03:36:13;16.17;;;14.43;;
17310;SDS011;8773;43.300;0.394;2022-12-07T03:38:45;14.77;;;13.17;;
17310;SDS011;8773;43.300;0.394;2022-12-07T03:41:18;13.67;;;12.30;;
17310;SDS011;8773;43.300;0.394;2022-12-07T03:43:50;14.63;;;13.23;;
17310;SDS011;8773;43.300;0.394;2022-12-07T03:46:21;12.50;;;11.30;;
17310;SDS011;8773;43.300;0.394;2022-12-07T03:49:00;15.57;;;13.40;;
17310;SDS011;8773;43.300;0.394;2022-12-07T03:51:37;13.17;;;11.87;;
17310;SDS011;8773;43.300;0.394;2022-12-07T03:54:09;13.17;;;11.77;;
17310;SDS011;8773;43.300;0.394;2022-12-07T03:56:41;11.90;;;10.70;;
17310;SDS011;8773;43.300;0.394;2022-12-07T03:59:12;13.43;;;11.37;;
17310;SDS011;8773;43.300;0.394;2022-12-07T04:01:43;11.53;;;10.43;;
17310;SDS011;8773;43.300;0.394;2022-12-07T04:04:12;11.17;;;10.07;;
17310;SDS011;8773;43.300;0.394;2022-12-07T04:06:40;9.93;;;9.03;;
17310;SDS011;8773;43.300;0.394;2022-12-07T04:09:09;10.37;;;9.47;;
17310;SDS011;8773;43.300;0.394;2022-12-07T04:11:37;10.17;;;9.20;;
17310;SDS011;8773;43.300;0.394;2022-12-07T04:14:05;12.83;;;10.93;;
17310;SDS011;8773;43.300;0.394;2022-12-07T04:16:50;11.50;;;10.30;;
17310;SDS011;8773;43.300;0.394;2022-12-07T04:19:20;10.50;;;9.60;;
17310;SDS011;8773;43.300;0.394;2022-12-07T04:21:50;9.83;;;8.87;;
17310;SDS011;8773;43.300;0.394;2022-12-07T04:24:18;10.10;;;9.10;;
17310;SDS011;8773;43.300;0.394;2022-12-07T04:26:47;9.83;;;9.03;;
17310;SDS011;8773;43.300;0.394;2022-12-07T04:29:16;10.47;;;9.57;;
17310;SDS011;8773;43.300;0.394;2022-12-07T04:31:44;10.00;;;9.00;;
17310;SDS011;8773;43.300;0.394;2022-12-07T04:34:15;10.07;;;9.07;;
17310;SDS011;8773;43.300;0.394;2022-12-07T04:36:44;9.13;;;8.33;;
17310;SDS011;8773;43.300;0.394;2022-12-07T04:39:19;8.77;;;8.07;;
17310;SDS011;8773;43.300;0.394;2022-12-07T04:41:48;9.50;;;8.70;;
17310;SDS011;8773;43.300;0.394;2022-12-07T04:44:17;9.23;;;8.33;;
17310;SDS011;8773;43.300;0.394;2022-12-07T04:46:46;9.47;;;8.60;;
17310;SDS011;8773;43.300;0.394;2022-12-07T04:49:17;8.17;;;7.40;;
17310;SDS011;8773;43.300;0.394;2022-12-07T04:51:46;8.80;;;7.97;;
17310;SDS011;8773;43.300;0.394;2022-12-07T04:54:15;8.50;;;7.80;;
17310;SDS011;8773;43.300;0.394;2022-12-07T04:56:44;8.43;;;7.73;;
17310;SDS011;8773;43.300;0.394;2022-12-07T04:59:12;8.40;;;7.70;;
17310;SDS011;8773;43.300;0.394;2022-12-07T05:01:41;9.53;;;8.70;;
17310;SDS011;8773;43.300;0.394;2022-12-07T05:04:09;8.50;;;7.70;;
17310;SDS011;8773;43.300;0.394;2022-12-07T05:06:39;8.80;;;8.10;;
17310;SDS011;8773;43.300;0.394;2022-12-07T05:09:07;9.60;;;8.70;;
17310;SDS011;8773;43.300;0.394;2022-12-07T05:11:35;9.27;;;8.57;;
17310;SDS011;8773;43.300;0.394;2022-12-07T05:14:09;11.87;;;9.20;;
17310;SDS011;8773;43.300;0.394;2022-12-07T05:16:39;10.83;;;9.73;;
17310;SDS011;8773;43.300;0.394;2022-12-07T05:19:09;9.10;;;8.20;;
17310;SDS011;8773;43.300;0.394;2022-12-07T05:21:39;9.53;;;8.63;;
17310;SDS011;8773;43.300;0.394;2022-12-07T05:24:08;9.57;;;8.73;;
17310;SDS011;8773;43.300;0.394;2022-12-07T05:26:39;8.43;;;7.83;;
17310;SDS011;8773;43.300;0.394;2022-12-07T05:29:07;9.93;;;9.03;;
17310;SDS011;8773;43.300;0.394;2022-12-07T05:31:38;10.03;;;9.13;;
17310;SDS011;8773;43.300;0.394;2022-12-07T05:34:06;9.10;;;8.40;;
17310;SDS011;8773;43.300;0.394;2022-12-07T05:36:34;10.00;;;9.03;;
17310;SDS011;8773;43.300;0.394;2022-12-07T05:39:05;10.70;;;9.20;;
17310;SDS011;8773;43.300;0.394;2022-12-07T05:41:33;9.60;;;8.53;;
17310;SDS011;8773;43.300;0.394;2022-12-07T05:44:19;9.73;;;8.77;;
17310;SDS011;8773;43.300;0.394;2022-12-07T05:46:47;9.70;;;8.80;;
17310;SDS011;8773;43.300;0.394;2022-12-07T05:49:15;8.40;;;7.73;;
17310;SDS011;8773;43.300;0.394;2022-12-07T05:51:44;8.40;;;7.80;;
17310;SDS011;8773;43.300;0.394;2022-12-07T05:54:13;11.73;;;8.77;;
17310;SDS011;8773;43.300;0.394;2022-12-07T05:56:41;9.97;;;8.97;;
17310;SDS011;8773;43.300;0.394;2022-12-07T05:59:09;9.30;;;8.50;;
17310;SDS011;8773;43.300;0.394;2022-12-07T06:01:50;8.80;;;8.10;;
17310;SDS011;8773;43.300;0.394;2022-12-07T06:04:19;7.90;;;7.20;;
17310;SDS011;8773;43.300;0.394;2022-12-07T06:06:48;8.40;;;7.60;;
17310;SDS011;8773;43.300;0.394;2022-12-07T06:09:18;8.03;;;7.27;;
17310;SDS011;8773;43.300;0.394;2022-12-07T06:11:47;7.83;;;7.13;;
17310;SDS011;8773;43.300;0.394;2022-12-07T06:14:32;8.03;;;7.30;;
17310;SDS011;8773;43.300;0.394;2022-12-07T06:17:01;8.27;;;7.57;;
17310;SDS011;8773;43.300;0.394;2022-12-07T06:19:29;7.80;;;7.10;;
17310;SDS011;8773;43.300;0.394;2022-12-07T06:21:58;7.60;;;7.00;;
17310;SDS011;8773;43.300;0.394;2022-12-07T06:24:27;8.47;;;7.77;;
17310;SDS011;8773;43.300;0.394;2022-12-07T06:26:56;8.27;;;7.67;;
17310;SDS011;8773;43.300;0.394;2022-12-07T06:29:24;8.90;;;8.10;;
17310;SDS011;8773;43.300;0.394;2022-12-07T06:31:52;8.40;;;7.47;;
17310;SDS011;8773;43.300;0.394;2022-12-07T06:34:21;8.40;;;7.80;;
17310;SDS011;8773;43.300;0.394;2022-12-07T06:36:50;8.93;;;8.17;;
17310;SDS011;8773;43.300;0.394;2022-12-07T06:39:22;8.93;;;8.03;;
17310;SDS011;8773;43.300;0.394;2022-12-07T06:41:53;8.37;;;7.57;;
17310;SDS011;8773;43.300;0.394;2022-12-07T06:44:21;8.23;;;7.43;;
17310;SDS011;8773;43.300;0.394;2022-12-07T06:46:50;7.77;;;7.00;;
17310;SDS011;8773;43.300;0.394;2022-12-07T06:49:38;8.97;;;8.07;;
17310;SDS011;8773;43.300;0.394;2022-12-07T06:52:06;8.83;;;7.60;;
17310;SDS011;8773;43.300;0.394;2022-12-07T06:54:34;7.73;;;7.13;;
17310;SDS011;8773;43.300;0.394;2022-12-07T06:57:03;8.37;;;7.67;;
17310;SDS011;8773;43.300;0.394;2022-12-07T06:59:31;7.93;;;7.30;;
17310;SDS011;8773;43.300;0.394;2022-12-07T07:01:59;9.20;;;8.30;;
17310;SDS011;8773;43.300;0.394;2022-12-07T07:04:28;8.67;;;7.87;;
17310;SDS011;8773;43.300;0.394;2022-12-07T07:06:56;8.60;;;7.87;;
17310;SDS011;8773;43.300;0.394;2022-12-07T07:09:26;10.03;;;9.03;;
17310;SDS011;8773;43.300;0.394;2022-12-07T07:11:54;8.00;;;7.40;;
17310;SDS011;8773;43.300;0.394;2022-12-07T07:14:23;26.97;;;15.00;;
17310;SDS011;8773;43.300;0.394;2022-12-07T07:16:51;25.83;;;13.90;;
17310;SDS011;8773;43.300;0.394;2022-12-07T07:19:20;39.10;;;19.17;;
17310;SDS011;8773;43.300;0.394;2022-12-07T07:21:48;49.27;;;24.40;;
17310;SDS011;8773;43.300;0.394;2022-12-07T07:24:16;112.67;;;51.90;;
17310;SDS011;8773;43.300;0.394;2022-12-07T07:26:44;42.23;;;23.83;;
17310;SDS011;8773;43.300;0.394;2022-12-07T07:29:12;20.00;;;14.50;;
17310;SDS011;8773;43.300;0.394;2022-12-07T07:31:41;24.53;;;15.80;;
17310;SDS011;8773;43.300;0.394;2022-12-07T07:34:09;16.07;;;13.03;;
17310;SDS011;8773;43.300;0.394;2022-12-07T07:36:38;16.20;;;11.40;;
17310;SDS011;8773;43.300;0.394;2022-12-07T07:39:06;14.33;;;10.77;;
17310;SDS011;8773;43.300;0.394;2022-12-07T07:41:34;14.87;;;12.03;;
17310;SDS011;8773;43.300;0.394;2022-12-07T07:44:02;10.97;;;9.87;;
17310;SDS011;8773;43.300;0.394;2022-12-07T07:46:30;12.47;;;11.17;;
17310;SDS011;8773;43.300;0.394;2022-12-07T07:49:01;11.20;;;10.20;;
17310;SDS011;8773;43.300;0.394;2022-12-07T07:51:29;15.07;;;11.77;;
17310;SDS011;8773;43.300;0.394;2022-12-07T07:53:57;9.37;;;8.37;;
17310;SDS011;8773;43.300;0.394;2022-12-07T07:56:25;11.90;;;9.90;;
17310;SDS011;8773;43.300;0.394;2022-12-07T07:58:54;10.27;;;9.27;;
17310;SDS011;8773;43.300;0.394;2022-12-07T08:01:22;9.43;;;8.53;;
17310;SDS011;8773;43.300;0.394;2022-12-07T08:03:50;13.17;;;11.87;;
17310;SDS011;8773;43.300;0.394;2022-12-07T08:06:19;10.43;;;9.47;;
17310;SDS011;8773;43.300;0.394;2022-12-07T08:08:47;11.10;;;8.50;;
17310;SDS011;8773;43.300;0.394;2022-12-07T08:11:15;9.20;;;8.47;;
17310;SDS011;8773;43.300;0.394;2022-12-07T08:13:44;10.63;;;9.60;;
17310;SDS011;8773;43.300;0.394;2022-12-07T08:16:13;10.27;;;9.13;;
17310;SDS011;8773;43.300;0.394;2022-12-07T08:18:41;10.00;;;8.57;;
17310;SDS011;8773;43.300;0.394;2022-12-07T08:21:11;9.07;;;8.27;;
17310;SDS011;8773;43.300;0.394;2022-12-07T08:23:41;9.57;;;8.70;;
17310;SDS011;8773;43.300;0.394;2022-12-07T08:26:10;10.77;;;9.67;;
17310;SDS011;8773;43.300;0.394;2022-12-07T08:28:40;10.23;;;9.33;;
17310;SDS011;8773;43.300;0.394;2022-12-07T08:31:10;11.90;;;10.80;;
17310;SDS011;8773;43.300;0.394;2022-12-07T08:33:40;9.80;;;8.80;;
17310;SDS011;8773;43.300;0.394;2022-12-07T08:36:09;10.03;;;9.13;;
17310;SDS011;8773;43.300;0.394;2022-12-07T08:38:39;74.63;;;52.40;;
17310;SDS011;8773;43.300;0.394;2022-12-07T08:41:30;75.00;;;63.13;;
17310;SDS011;8773;43.300;0.394;2022-12-07T08:43:58;23.50;;;21.00;;
17310;SDS011;8773;43.300;0.394;2022-12-07T08:46:28;11.40;;;10.30;;
17310;SDS011;8773;43.300;0.394;2022-12-07T08:49:02;10.80;;;9.63;;
17310;SDS011;8773;43.300;0.394;2022-12-07T08:51:33;11.57;;;9.00;;
17310;SDS011;8773;43.300;0.394;2022-12-07T08:54:03;9.80;;;8.80;;
17310;SDS011;8773;43.300;0.394;2022-12-07T08:56:34;10.50;;;9.50;;
17310;SDS011;8773;43.300;0.394;2022-12-07T08:59:02;12.10;;;10.83;;
17310;SDS011;8773;43.300;0.394;2022-12-07T09:01:31;12.17;;;11.03;;
17310;SDS011;8773;43.300;0.394;2022-12-07T09:04:00;18.43;;;16.60;;
17310;SDS011;8773;43.300;0.394;2022-12-07T09:06:28;18.63;;;16.60;;
17310;SDS011;8773;43.300;0.394;2022-12-07T09:08:57;14.23;;;12.83;;
17310;SDS011;8773;43.300;0.394;2022-12-07T09:11:27;15.13;;;13.53;;
17310;SDS011;8773;43.300;0.394;2022-12-07T09:13:56;12.80;;;9.97;;
17310;SDS011;8773;43.300;0.394;2022-12-07T09:16:24;10.20;;;9.20;;
17310;SDS011;8773;43.300;0.394;2022-12-07T09:18:52;11.63;;;9.27;;
17310;SDS011;8773;43.300;0.394;2022-12-07T09:21:20;10.37;;;9.43;;
17310;SDS011;8773;43.300;0.394;2022-12-07T09:23:48;12.73;;;10.70;;
17310;SDS011;8773;43.300;0.394;2022-12-07T09:26:16;18.53;;;15.33;;
17310;SDS011;8773;43.300;0.394;2022-12-07T09:28:45;17.30;;;15.60;;
17310;SDS011;8773;43.300;0.394;2022-12-07T09:31:13;16.03;;;14.43;;
17310;SDS011;8773;43.300;0.394;2022-12-07T09:33:53;13.80;;;12.40;;
17310;SDS011;8773;43.300;0.394;2022-12-07T09:36:22;12.17;;;10.90;;
17310;SDS011;8773;43.300;0.394;2022-12-07T09:38:50;11.77;;;10.67;;
17310;SDS011;8773;43.300;0.394;2022-12-07T09:41:18;11.83;;;10.47;;
17310;SDS011;8773;43.300;0.394;2022-12-07T09:43:48;14.17;;;9.50;;
17310;SDS011;8773;43.300;0.394;2022-12-07T09:46:17;11.50;;;9.73;;
17310;SDS011;8773;43.300;0.394;2022-12-07T09:48:47;12.23;;;10.50;;
17310;SDS011;8773;43.300;0.394;2022-12-07T09:51:18;11.17;;;10.00;;
17310;SDS011;8773;43.300;0.394;2022-12-07T09:53:51;10.93;;;9.87;;
17310;SDS011;8773;43.300;0.394;2022-12-07T09:56:20;11.43;;;9.47;;
17310;SDS011;8773;43.300;0.394;2022-12-07T09:58:51;9.97;;;9.03;;
17310;SDS011;8773;43.300;0.394;2022-12-07T10:01:28;11.43;;;9.90;;
17310;SDS011;8773;43.300;0.394;2022-12-07T10:04:00;9.83;;;8.87;;
17310;SDS011;8773;43.300;0.394;2022-12-07T10:06:36;10.83;;;9.47;;
17310;SDS011;8773;43.300;0.394;2022-12-07T10:09:08;9.67;;;8.80;;
17310;SDS011;8773;43.300;0.394;2022-12-07T10:14:31;9.70;;;8.90;;
17310;SDS011;8773;43.300;0.394;2022-12-07T10:17:30;9.23;;;8.17;;
17310;SDS011;8773;43.300;0.394;2022-12-07T10:20:10;11.17;;;10.17;;
17310;SDS011;8773;43.300;0.394;2022-12-07T10:22:53;10.23;;;9.33;;
17310;SDS011;8773;43.300;0.394;2022-12-07T10:25:24;11.20;;;9.93;;
17310;SDS011;8773;43.300;0.394;2022-12-07T10:27:57;10.50;;;9.47;;
17310;SDS011;8773;43.300;0.394;2022-12-07T10:30:29;10.43;;;9.53;;
17310;SDS011;8773;43.300;0.394;2022-12-07T10:32:58;10.13;;;9.13;;
17310;SDS011;8773;43.300;0.394;2022-12-07T10:35:26;9.63;;;8.73;;
17310;SDS011;8773;43.300;0.394;2022-12-07T10:37:56;9.73;;;8.70;;
17310;SDS011;8773;43.300;0.394;2022-12-07T10:40:27;9.13;;;8.33;;
17310;SDS011;8773;43.300;0.394;2022-12-07T10:43:01;10.67;;;8.33;;
17310;SDS011;8773;43.300;0.394;2022-12-07T10:45:58;10.10;;;7.97;;
17310;SDS011;8773;43.300;0.394;2022-12-07T10:48:46;8.47;;;7.70;;
17310;SDS011;8773;43.300;0.394;2022-12-07T10:51:23;8.53;;;7.70;;
17310;SDS011;8773;43.300;0.394;2022-12-07T10:54:08;9.93;;;8.50;;
17310;SDS011;8773;43.300;0.394;2022-12-07T10:56:52;10.67;;;9.57;;
17310;SDS011;8773;43.300;0.394;2022-12-07T10:59:35;9.43;;;8.53;;
17310;SDS011;8773;43.300;0.394;2022-12-07T11:02:19;10.23;;;9.13;;
17310;SDS011;8773;43.300;0.394;2022-12-07T11:04:59;9.50;;;8.70;;
17310;SDS011;8773;43.300;0.394;2022-12-07T11:07:38;13.97;;;12.53;;
17310;SDS011;8773;43.300;0.394;2022-12-07T11:10:22;19.43;;;16.20;;
17310;SDS011;8773;43.300;0.394;2022-12-07T11:13:01;12.30;;;9.33;;
17310;SDS011;8773;43.300;0.394;2022-12-07T11:16:05;9.10;;;8.20;;
17310;SDS011;8773;43.300;0.394;2022-12-07T11:18:47;8.67;;;7.87;;
17310;SDS011;8773;43.300;0.394;2022-12-07T11:21:24;7.57;;;6.80;;
17310;SDS011;8773;43.300;0.394;2022-12-07T11:24:00;10.27;;;8.93;;
17310;SDS011;8773;43.300;0.394;2022-12-07T11:26:34;10.50;;;9.37;;
17310;SDS011;8773;43.300;0.394;2022-12-07T11:32:13;10.00;;;9.00;;
17310;SDS011;8773;43.300;0.394;2022-12-07T11:34:51;10.47;;;9.50;;
17310;SDS011;8773;43.300;0.394;2022-12-07T11:37:31;10.30;;;9.50;;
17310;SDS011;8773;43.300;0.394;2022-12-07T11:40:08;10.50;;;9.20;;
17310;SDS011;8773;43.300;0.394;2022-12-07T11:42:46;10.70;;;9.60;;
17310;SDS011;8773;43.300;0.394;2022-12-07T11:45:20;11.07;;;10.07;;
17310;SDS011;8773;43.300;0.394;2022-12-07T11:47:54;10.83;;;9.83;;
17310;SDS011;8773;43.300;0.394;2022-12-07T11:50:30;12.20;;;11.00;;
17310;SDS011;8773;43.300;0.394;2022-12-07T11:53:01;12.20;;;10.93;;
17310;SDS011;8773;43.300;0.394;2022-12-07T11:55:41;11.20;;;10.30;;
17310;SDS011;8773;43.300;0.394;2022-12-07T11:58:35;13.67;;;12.47;;
17310;SDS011;8773;43.300;0.394;2022-12-07T12:01:14;11.57;;;10.60;;
17310;SDS011;8773;43.300;0.394;2022-12-07T12:03:55;11.90;;;10.90;;
17310;SDS011;8773;43.300;0.394;2022-12-07T12:06:28;11.20;;;9.70;;
17310;SDS011;8773;43.300;0.394;2022-12-07T12:08:58;11.40;;;10.27;;
17310;SDS011;8773;43.300;0.394;2022-12-07T12:12:17;9.43;;;8.73;;
17310;SDS011;8773;43.300;0.394;2022-12-07T12:15:20;9.43;;;8.73;;
17310;SDS011;8773;43.300;0.394;2022-12-07T12:21:00;5.97;;;5.37;;
17310;SDS011;8773;43.300;0.394;2022-12-07T12:23:35;6.87;;;6.47;;
17310;SDS011;8773;43.300;0.394;2022-12-07T12:26:13;15.17;;;11.27;;
17310;SDS011;8773;43.300;0.394;2022-12-07T12:28:49;9.47;;;8.57;;
17310;SDS011;8773;43.300;0.394;2022-12-07T12:34:30;7.00;;;6.37;;
17310;SDS011;8773;43.300;0.394;2022-12-07T12:55:29;7.10;;;6.37;;
17310;SDS011;8773;43.300;0.394;2022-12-07T12:58:29;7.70;;;7.00;;
17310;SDS011;8773;43.300;0.394;2022-12-07T13:01:38;10.87;;;8.73;;
17310;SDS011;8773;43.300;0.394;2022-12-07T13:04:21;8.47;;;7.67;;
17310;SDS011;8773;43.300;0.394;2022-12-07T13:06:53;6.73;;;6.23;;
17310;SDS011;8773;43.300;0.394;2022-12-07T13:09:22;9.03;;;8.10;;
17310;SDS011;8773;43.300;0.394;2022-12-07T13:11:57;8.40;;;7.60;;
17310;SDS011;8773;43.300;0.394;2022-12-07T13:14:39;6.70;;;6.10;;
17310;SDS011;8773;43.300;0.394;2022-12-07T13:20:48;6.57;;;5.30;;
17310;SDS011;8773;43.300;0.394;2022-12-07T13:23:18;5.83;;;5.30;;
17310;SDS011;8773;43.300;0.394;2022-12-07T13:25:51;5.10;;;4.70;;
17310;SDS011;8773;43.300;0.394;2022-12-07T13:28:31;6.27;;;4.47;;
17310;SDS011;8773;43.300;0.394;2022-12-07T13:31:11;4.40;;;4.00;;
17310;SDS011;8773;43.300;0.394;2022-12-07T13:33:45;4.80;;;4.50;;
17310;SDS011;8773;43.300;0.394;2022-12-07T13:36:16;5.60;;;4.47;;
17310;SDS011;8773;43.300;0.394;2022-12-07T13:38:51;5.20;;;4.80;;
17310;SDS011;8773;43.300;0.394;2022-12-07T13:41:22;5.57;;;5.03;;
17310;SDS011;8773;43.300;0.394;2022-12-07T13:43:53;8.30;;;4.97;;
17310;SDS011;8773;43.300;0.394;2022-12-07T13:46:30;7.93;;;5.13;;
17310;SDS011;8773;43.300;0.394;2022-12-07T13:49:16;6.33;;;5.43;;
17310;SDS011;8773;43.300;0.394;2022-12-07T13:51:47;9.30;;;5.00;;
17310;SDS011;8773;43.300;0.394;2022-12-07T13:54:17;5.10;;;4.70;;
17310;SDS011;8773;43.300;0.394;2022-12-07T13:56:47;5.13;;;4.63;;
17310;SDS011;8773;43.300;0.394;2022-12-07T13:59:18;5.23;;;4.57;;
17310;SDS011;8773;43.300;0.394;2022-12-07T14:01:48;7.10;;;5.10;;
17310;SDS011;8773;43.300;0.394;2022-12-07T14:04:19;5.50;;;5.10;;
17310;SDS011;8773;43.300;0.394;2022-12-07T14:06:58;8.20;;;5.47;;
17310;SDS011;8773;43.300;0.394;2022-12-07T14:09:28;5.70;;;5.00;;
17310;SDS011;8773;43.300;0.394;2022-12-07T14:11:57;5.20;;;4.70;;
17310;SDS011;8773;43.300;0.394;2022-12-07T14:14:26;5.43;;;5.00;;
17310;SDS011;8773;43.300;0.394;2022-12-07T14:17:08;6.77;;;4.87;;
17310;SDS011;8773;43.300;0.394;2022-12-07T14:19:48;5.20;;;4.90;;
17310;SDS011;8773;43.300;0.394;2022-12-07T14:22:26;5.67;;;5.13;;
17310;SDS011;8773;43.300;0.394;2022-12-07T14:25:00;10.43;;;4.90;;
17310;SDS011;8773;43.300;0.394;2022-12-07T14:27:39;5.07;;;4.70;;
17310;SDS011;8773;43.300;0.394;2022-12-07T14:30:17;5.20;;;4.70;;
17310;SDS011;8773;43.300;0.394;2022-12-07T14:32:46;5.90;;;5.40;;
17310;SDS011;8773;43.300;0.394;2022-12-07T14:35:19;7.00;;;4.97;;
17310;SDS011;8773;43.300;0.394;2022-12-07T14:37:47;8.00;;;4.67;;
17310;SDS011;8773;43.300;0.394;2022-12-07T14:40:17;6.00;;;4.70;;
17310;SDS011;8773;43.300;0.394;2022-12-07T14:42:48;8.63;;;5.40;;
17310;SDS011;8773;43.300;0.394;2022-12-07T14:45:19;8.00;;;5.50;;
17310;SDS011;8773;43.300;0.394;2022-12-07T14:47:49;6.10;;;5.37;;
17310;SDS011;8773;43.300;0.394;2022-12-07T14:50:39;6.00;;;5.37;;
17310;SDS011;8773;43.300;0.394;2022-12-07T14:53:33;6.50;;;5.00;;
17310;SDS011;8773;43.300;0.394;2022-12-07T14:56:04;6.57;;;5.23;;
17310;SDS011;8773;43.300;0.394;2022-12-07T14:58:32;7.00;;;5.60;;
17310;SDS011;8773;43.300;0.394;2022-12-07T15:01:01;6.13;;;5.63;;
17310;SDS011;8773;43.300;0.394;2022-12-07T15:03:31;5.57;;;5.17;;
17310;SDS011;8773;43.300;0.394;2022-12-07T15:06:02;6.23;;;5.70;;
17310;SDS011;8773;43.300;0.394;2022-12-07T15:08:32;6.20;;;5.60;;
17310;SDS011;8773;43.300;0.394;2022-12-07T15:11:00;5.93;;;5.43;;
17310;SDS011;8773;43.300;0.394;2022-12-07T15:13:29;5.97;;;5.47;;
17310;SDS011;8773;43.300;0.394;2022-12-07T15:16:16;7.30;;;6.20;;
17310;SDS011;8773;43.300;0.394;2022-12-07T15:18:47;6.30;;;5.80;;
17310;SDS011;8773;43.300;0.394;2022-12-07T15:21:36;7.67;;;6.97;;
17310;SDS011;8773;43.300;0.394;2022-12-07T15:24:05;5.87;;;5.47;;
17310;SDS011;8773;43.300;0.394;2022-12-07T15:26:33;8.40;;;7.13;;
17310;SDS011;8773;43.300;0.394;2022-12-07T15:29:01;5.97;;;5.57;;
17310;SDS011;8773;43.300;0.394;2022-12-07T15:31:30;6.13;;;5.70;;
17310;SDS011;8773;43.300;0.394;2022-12-07T15:34:18;6.53;;;6.00;;
17310;SDS011;8773;43.300;0.394;2022-12-07T15:36:47;10.53;;;7.40;;
17310;SDS011;8773;43.300;0.394;2022-12-07T15:39:15;6.57;;;5.90;;
17310;SDS011;8773;43.300;0.394;2022-12-07T15:41:43;5.80;;;5.50;;
17310;SDS011;8773;43.300;0.394;2022-12-07T15:44:12;6.07;;;5.57;;
17310;SDS011;8773;43.300;0.394;2022-12-07T15:46:58;6.57;;;6.00;;
17310;SDS011;8773;43.300;0.394;2022-12-07T15:49:26;6.90;;;6.17;;
17310;SDS011;8773;43.300;0.394;2022-12-07T15:51:56;6.10;;;5.70;;
17310;SDS011;8773;43.300;0.394;2022-12-07T15:54:25;8.27;;;6.60;;
17310;SDS011;8773;43.300;0.394;2022-12-07T15:56:55;14.40;;;9.27;;
17310;SDS011;8773;43.300;0.394;2022-12-07T15:59:23;7.30;;;6.60;;
17310;SDS011;8773;43.300;0.394;2022-12-07T16:01:54;12.23;;;8.97;;